Time;durP1;ratioP1;P1;durP2;ratioP2;P2;SDS_P1;SDS_P2;PMS_P1;PMS_P2;Temp;Humidity;BMP_temperature;BMP_pressure;BME280_temperature;BME280_humidity;BME280_pressure;Samples;Min_cycle;Max_cycle;Signal;HPM_P1;HPM_P2
2022/07/04 00:02:07;;;;;;;6.13;5.03;;;;;;;15.67;85.83;68514.69;5088987;28;20028;-81
2022/07/04 00:04:33;;;;;;;6.95;4.95;;;;;;;15.56;86.19;68497.38;5088186;28;20044;-78
2022/07/04 00:06:58;;;;;;;7.45;5.65;;;;;;;15.61;86.42;68511.13;5087031;28;20036;-79
2022/07/04 00:09:23;;;;;;;7.30;5.40;;;;;;;15.55;86.44;68501.59;5089044;28;20039;-78
2022/07/04 00:11:49;;;;;;;6.68;5.22;;;;;;;15.44;87.21;68489.06;5085780;28;20048;-79
2022/07/04 00:14:14;;;;;;;9.60;5.65;;;;;;;15.48;87.15;68494.19;5089330;28;20044;-79
2022/07/04 00:16:39;;;;;;;7.25;5.40;;;;;;;15.44;86.94;68489.63;5090142;28;20040;-81
2022/07/04 00:19:05;;;;;;;8.18;5.28;;;;;;;15.45;86.91;68490.78;5090447;28;20165;-79
2022/07/04 00:21:31;;;;;;;9.25;5.32;;;;;;;15.34;86.96;68478.81;5085367;28;20565;-81
2022/07/04 00:23:57;;;;;;;7.10;5.35;;;;;;;;;;5089472;28;20563;-81
2022/07/04 00:26:22;;;;;;;6.68;5.53;;;;;;;15.36;86.75;68475.16;5088339;28;20465;-77
2022/07/04 00:28:48;;;;;;;8.00;5.10;;;;;;;15.29;86.70;68472.56;5103547;28;20141;-80
2022/07/04 00:31:13;;;;;;;7.20;5.22;;;;;;;15.23;87.18;68466.28;5104658;28;20071;-79
2022/07/04 00:33:38;;;;;;;7.38;5.00;;;;;;;15.26;86.75;68469.13;5103827;28;20397;-80
2022/07/04 00:36:04;;;;;;;5.97;4.95;;;;;;;;;;5089986;28;20603;-79
2022/07/04 00:38:29;;;;;;;5.80;4.90;;;;;;;15.02;87.73;68442.94;5089111;28;20040;-79
2022/07/04 00:40:55;;;;;;;8.52;5.20;;;;;;;15.00;87.71;68440.09;5084015;28;20420;-78
2022/07/04 00:43:23;;;;;;;7.25;5.35;;;;;;;15.03;87.65;68444.06;5086492;28;20084;-79
2022/07/04 00:45:48;;;;;;;5.93;4.90;;;;;;;14.99;87.65;68438.94;5087418;28;20032;-78
2022/07/04 00:48:15;;;;;;;5.78;4.78;;;;;;;;;;5086722;28;20305;-78
2022/07/04 00:50:42;;;;;;;9.25;5.30;;;;;;;14.93;88.05;68432.13;5085943;28;20051;-78
2022/07/04 00:53:08;;;;;;;7.80;5.10;;;;;;;14.82;88.43;68420.16;5087357;28;20040;-78
2022/07/04 00:55:33;;;;;;;8.07;5.57;;;;;;;14.82;88.41;68420.75;5084135;28;20036;-78
2022/07/04 00:57:59;;;;;;;8.32;5.32;;;;;;;14.77;88.53;68417.16;5099845;28;20075;-79
2022/07/04 01:00:24;;;;;;;8.50;5.80;;;;;;;;;;5083748;28;20050;-79
2022/07/04 01:02:49;;;;;;;6.43;4.88;;;;;;;;;;5088781;28;20040;-77
2022/07/04 01:05:15;;;;;;;9.13;5.65;;;;;;;14.67;89.14;68403.66;5087030;28;20024;-78
2022/07/04 01:07:42;;;;;;;7.25;5.85;;;;;;;14.71;89.35;68410.31;5086520;28;20096;-76
2022/07/04 01:10:08;;;;;;;7.03;5.30;;;;;;;14.61;89.72;68397.38;5102489;28;20046;-79
2022/07/04 01:12:35;;;;;;;7.93;6.07;;;;;;;14.62;89.39;68403.88;5087050;28;20048;-77
2022/07/04 01:15:01;;;;;;;7.32;5.63;;;;;;;14.59;89.46;68395.13;5088682;28;20032;-79
2022/07/04 01:17:26;;;;;;;7.18;5.20;;;;;;;14.45;90.55;68379.16;5084549;28;20070;-77
2022/07/04 01:19:52;;;;;;;8.90;5.25;;;;;;;;;;5085929;28;20381;-79
2022/07/04 01:22:19;;;;;;;10.75;5.95;;;;;;;;;;5105433;28;20078;-77
2022/07/04 01:24:44;;;;;;;9.55;5.82;;;;;;;14.29;92.09;68361.50;5090155;28;20040;-79
2022/07/04 01:27:09;;;;;;;9.32;5.70;;;;;;;;;;5088601;28;20463;-78
2022/07/04 01:29:35;;;;;;;8.48;5.97;;;;;;;;;;5084719;28;20052;-81
2022/07/04 01:32:05;;;;;;;9.45;6.47;;;;;;;14.31;91.98;68368.56;5090656;28;20055;-83
2022/07/04 01:34:30;;;;;;;8.95;6.35;;;;;;;;;;5092192;28;20191;-82
2022/07/04 01:36:55;;;;;;;7.30;6.50;;;;;;;14.17;93.09;68347.84;5095028;28;20032;-84
2022/07/04 01:39:21;;;;;;;7.63;6.15;;;;;;;;;;5086964;28;20421;-76
2022/07/04 01:41:46;;;;;;;9.93;6.63;;;;;;;14.15;93.34;68345.56;5088137;28;20048;-78
2022/07/04 01:44:11;;;;;;;7.88;6.60;;;;;;;14.13;93.22;68345.97;5089192;28;20289;-79
2022/07/04 01:46:37;;;;;;;8.00;6.97;;;;;;;;;;5091428;28;20043;-79
2022/07/04 01:49:02;;;;;;;8.50;6.35;;;;;;;;;;5088394;28;20071;-80
2022/07/04 01:51:27;;;;;;;9.45;6.72;;;;;;;14.13;93.67;68338.53;5083271;28;20396;-78
2022/07/04 01:53:53;;;;;;;8.13;6.93;;;;;;;14.02;93.86;68330.78;5085917;28;20063;-79
2022/07/04 01:56:18;;;;;;;8.25;7.22;;;;;;;14.04;94.14;68333.63;5087975;28;20032;-77
2022/07/04 01:58:43;;;;;;;8.98;7.03;;;;;;;13.98;94.04;68327.38;5086505;28;20044;-79
2022/07/04 02:03:53;;;;;;;8.60;7.40;;;;;;;13.95;94.44;68323.97;5066906;28;20067;-79
2022/07/04 02:06:18;;;;;;;10.23;7.40;;;;;;;13.88;94.70;68320.78;5085516;28;20492;-78
2022/07/04 02:11:27;;;;;;;10.55;7.60;;;;;;;13.75;96.40;68301.78;5079481;28;20040;-79
2022/07/04 02:13:52;;;;;;;9.52;7.68;;;;;;;13.79;96.21;68299.84;5086174;28;20052;-78
2022/07/04 02:16:18;;;;;;;9.57;8.02;;;;;;;13.71;96.70;68302.00;5086797;28;20560;-79
2022/07/04 02:18:43;;;;;;;10.35;8.15;;;;;;;13.69;96.74;68294.94;5088992;28;20552;-80
2022/07/04 02:21:09;;;;;;;11.05;8.23;;;;;;;13.69;97.09;68294.94;5091087;28;20507;-76
2022/07/04 02:23:34;;;;;;;10.07;7.88;;;;;;;;;;5088472;28;20047;-76
2022/07/04 02:25:59;;;;;;;11.00;8.65;;;;;;;13.63;97.37;68288.09;5089354;28;20137;-79
2022/07/04 02:28:25;;;;;;;12.48;8.80;;;;;;;13.64;97.32;68291.94;5088325;28;20036;-79
2022/07/04 02:30:50;;;;;;;12.30;8.85;;;;;;;13.61;97.58;68285.84;5090063;28;20178;-79
2022/07/04 02:33:15;;;;;;;15.35;8.50;;;;;;;;;;5090970;28;20109;-79
2022/07/04 02:35:41;;;;;;;10.52;8.18;;;;;;;13.59;97.88;68283.56;5092451;28;20051;-78
2022/07/04 02:38:06;;;;;;;11.27;9.05;;;;;;;13.53;97.71;68271.38;5092690;28;20480;-82
2022/07/04 02:40:31;;;;;;;11.13;8.40;;;;;;;13.52;97.70;68278.25;5089001;28;20040;-78
2022/07/04 02:42:57;;;;;;;13.90;8.57;;;;;;;13.47;98.01;68269.91;5087784;28;20118;-78
2022/07/04 02:45:22;;;;;;;12.20;8.90;;;;;;;13.50;97.70;68273.31;5089602;28;20028;-78
2022/07/04 02:47:48;;;;;;;12.45;9.00;;;;;;;13.45;98.15;68267.63;5088146;28;20640;-78
2022/07/04 02:50:13;;;;;;;10.98;9.48;;;;;;;13.47;98.22;68272.59;5088825;28;20490;-78
2022/07/04 02:52:38;;;;;;;12.02;9.63;;;;;;;13.40;98.01;68264.63;5090612;28;20131;-78
2022/07/04 02:55:04;;;;;;;11.48;9.98;;;;;;;13.35;98.51;68256.84;5088697;28;20043;-77
2022/07/04 02:57:30;;;;;;;11.90;9.45;;;;;;;13.30;99.28;68253.81;5090219;28;20493;-78
2022/07/04 02:59:55;;;;;;;13.77;10.13;;;;;;;13.28;100.00;68254.78;5089403;28;20035;-80
2022/07/04 03:02:20;;;;;;;13.48;10.88;;;;;;;;;;5092115;28;20032;-80
2022/07/04 03:04:46;;;;;;;12.05;10.73;;;;;;;13.32;100.00;68254.00;5096200;28;20057;-79
2022/07/04 03:07:11;;;;;;;14.00;10.90;;;;;;;13.32;100.00;68253.41;5090908;28;20036;-80
2022/07/04 03:09:42;;;;;;;12.57;10.52;;;;;;;;;;5099843;22;20043;-85
2022/07/04 03:12:08;;;;;;;15.30;11.63;;;;;;;13.35;99.51;68261.59;5079206;28;20504;-85
2022/07/04 03:14:34;;;;;;;13.65;11.23;;;;;;;13.26;99.13;68249.84;5066982;28;20094;-85
2022/07/04 03:16:59;;;;;;;12.85;11.20;;;;;;;13.18;99.68;68238.06;5067047;28;20041;-84
2022/07/04 03:19:24;;;;;;;15.32;11.48;;;;;;;13.15;99.97;68237.31;5064180;28;20049;-85
2022/07/04 03:21:50;;;;;;;15.68;11.65;;;;;;;13.12;99.98;68230.63;5065462;28;20044;-85
2022/07/04 03:24:15;;;;;;;12.90;11.27;;;;;;;13.09;99.91;68228.38;5064228;28;20032;-86
2022/07/04 03:26:40;;;;;;;12.90;10.73;;;;;;;13.09;99.93;68227.81;5065184;28;20056;-84
2022/07/04 03:29:06;;;;;;;14.90;11.15;;;;;;;13.00;99.54;68218.13;5065650;28;20122;-85
2022/07/04 03:31:31;;;;;;;14.10;11.32;;;;;;;12.94;100.00;68210.75;5064334;28;20324;-85
2022/07/04 03:33:57;;;;;;;15.50;12.02;;;;;;;12.91;100.00;68207.91;5064020;28;20032;-85
2022/07/04 03:36:22;;;;;;;17.35;12.23;;;;;;;12.86;100.00;68202.22;5066092;28;20098;-85
2022/07/04 03:38:47;;;;;;;14.18;11.55;;;;;;;12.80;100.00;68198.66;5067530;28;20116;-85
2022/07/04 03:41:13;;;;;;;16.65;12.60;;;;;;;12.78;100.00;68193.13;5064164;28;20051;-85
2022/07/04 03:43:39;;;;;;;16.08;11.95;;;;;;;;;;5066743;28;20500;-84
2022/07/04 03:46:04;;;;;;;16.00;12.40;;;;;;;12.73;100.00;68190.69;5065702;28;20040;-85
2022/07/04 03:48:30;;;;;;;13.90;10.93;;;;;;;12.67;100.00;68181.19;5069569;28;20078;-85
2022/07/04 03:50:56;;;;;;;15.40;10.68;;;;;;;12.66;100.00;68185.41;5068039;28;20447;-85
2022/07/04 03:53:21;;;;;;;13.43;11.27;;;;;;;12.65;100.00;68178.91;5068694;28;20508;-84
2022/07/04 03:55:47;;;;;;;15.05;11.57;;;;;;;;;;5068074;28;20049;-85
2022/07/04 03:58:12;;;;;;;14.05;11.02;;;;;;;12.63;100.00;68177.22;5065984;28;20497;-85
2022/07/04 04:00:37;;;;;;;12.48;11.18;;;;;;;12.59;100.00;68167.31;5065127;28;20343;-84
2022/07/04 04:05:25;;;;;;;13.30;10.90;;;;;;;12.55;100.00;68167.56;5059941;28;20060;-85
2022/07/04 04:05:48;;;;;;;12.90;11.05;;;;;;;12.57;100.00;68170.41;5077822;28;20133;-85
2022/07/04 04:08:13;;;;;;;14.43;11.50;;;;;;;12.60;100.00;68175.91;5067441;28;20423;-85
2022/07/04 04:10:39;;;;;;;14.70;11.43;;;;;;;;;;5082575;28;20393;-85
2022/07/04 04:13:04;;;;;;;12.68;10.75;;;;;;;12.63;100.00;68179.88;5068243;28;20071;-85
2022/07/04 04:15:30;;;;;;;11.88;10.35;;;;;;;12.67;100.00;68180.63;5073164;28;20036;-85
2022/07/04 04:17:55;;;;;;;16.63;10.82;;;;;;;12.68;100.00;68181.75;5065695;28;20078;-85
2022/07/04 04:20:21;;;;;;;15.05;11.55;;;;;;;12.68;100.00;68182.31;5079800;28;20412;-85
2022/07/04 04:22:46;;;;;;;13.80;10.32;;;;;;;12.69;100.00;68182.88;5062928;28;20114;-84
2022/07/04 04:25:11;;;;;;;13.73;11.32;;;;;;;12.72;100.00;68189.56;5060625;28;20047;-84
2022/07/04 04:27:37;;;;;;;16.67;13.00;;;;;;;12.77;100.00;68195.22;5066532;28;20064;-85
2022/07/04 04:30:03;;;;;;;14.20;12.27;;;;;;;12.90;100.00;68209.44;5069124;28;20128;-87
2022/07/04 04:32:28;;;;;;;16.88;12.57;;;;;;;13.00;100.00;68220.81;5066010;28;20066;-87
2022/07/04 04:34:54;;;;;;;12.73;11.15;;;;;;;;;;5075780;28;20048;-87
2022/07/04 04:37:19;;;;;;;17.52;11.90;;;;;;;13.18;100.00;68237.47;5065624;28;20038;-87
2022/07/04 04:39:44;;;;;;;14.80;12.02;;;;;;;13.20;100.00;68239.75;5074839;28;20037;-87
2022/07/04 04:42:10;;;;;;;16.05;11.80;;;;;;;;;;5064516;28;20050;-87
2022/07/04 04:44:35;;;;;;;14.73;11.93;;;;;;;13.29;100.00;68250.59;5061962;28;20082;-87
2022/07/04 04:47:00;;;;;;;18.63;11.68;;;;;;;13.36;100.00;68257.97;5063852;28;20282;-87
2022/07/04 04:49:26;;;;;;;17.05;11.98;;;;;;;;;;5082690;28;20102;-87
2022/07/04 04:51:51;;;;;;;13.88;11.55;;;;;;;13.48;100.00;68273.72;5067545;28;20075;-87
2022/07/04 04:54:16;;;;;;;18.73;12.43;;;;;;;13.50;100.00;68273.31;5068775;28;20744;-87
2022/07/04 04:56:42;;;;;;;16.58;11.32;;;;;;;13.56;100.00;68285.50;5063997;28;20058;-87
2022/07/04 04:59:08;;;;;;;18.42;12.68;;;;;;;13.63;100.00;68288.09;5063470;28;20325;-87
2022/07/04 05:01:34;;;;;;;15.43;11.57;;;;;;;13.65;100.00;68289.81;5062015;28;20432;-87
2022/07/04 05:03:59;;;;;;;15.25;11.80;;;;;;;13.77;99.49;68303.47;5062096;28;20121;-87
2022/07/04 05:06:24;;;;;;;15.73;11.93;;;;;;;13.83;99.52;68309.72;5059500;28;20067;-88
2022/07/04 05:08:50;;;;;;;16.70;12.13;;;;;;;13.94;99.34;68324.91;5079089;28;20569;-87
2022/07/04 05:11:15;;;;;;;15.82;11.88;;;;;;;;;;5059959;28;20351;-87
2022/07/04 05:13:40;;;;;;;14.50;10.75;;;;;;;14.09;98.50;68338.75;5063724;28;20053;-87
2022/07/04 05:16:06;;;;;;;18.48;11.88;;;;;;;14.18;98.05;68348.97;5079940;28;20040;-88
2022/07/04 05:18:31;;;;;;;14.82;10.43;;;;;;;;;;5059676;28;20051;-87
2022/07/04 05:20:58;;;;;;;15.68;11.52;;;;;;;14.32;97.68;68364.34;5065911;28;20416;-87
2022/07/04 05:23:24;;;;;;;13.40;10.15;;;;;;;14.43;96.90;68377.44;5080753;28;20059;-87
2022/07/04 05:25:49;;;;;;;12.68;10.32;;;;;;;;;;5064883;28;21305;-87
2022/07/04 05:28:14;;;;;;;15.75;9.55;;;;;;;14.58;96.37;68396.66;5063327;28;20823;-86
2022/07/04 05:30:40;;;;;;;15.00;9.73;;;;;;;14.72;95.83;68409.34;5059007;28;20186;-87
2022/07/04 05:33:05;;;;;;;15.10;9.82;;;;;;;14.79;95.22;68416.75;5052572;28;20067;-88
2022/07/04 05:35:31;;;;;;;13.85;8.88;;;;;;;14.87;94.65;68431.78;5060328;28;20037;-87
2022/07/04 05:37:57;;;;;;;13.27;9.00;;;;;;;14.98;94.56;68440.50;5060910;28;20037;-87
2022/07/04 05:40:23;;;;;;;13.60;9.05;;;;;;;15.04;94.41;68447.31;5062675;28;20101;-87
2022/07/04 05:42:48;;;;;;;12.43;8.90;;;;;;;;;;5061578;28;20351;-87
2022/07/04 05:45:14;;;;;;;12.57;8.27;;;;;;;15.22;93.20;68459.22;5063277;28;20436;-85
2022/07/04 05:47:39;;;;;;;15.90;8.38;;;;;;;15.28;92.44;68466.63;5062108;28;20072;-85
2022/07/04 05:50:05;;;;;;;9.95;8.48;;;;;;;15.39;92.21;68483.38;5061009;28;20127;-85
2022/07/04 05:52:31;;;;;;;13.27;8.23;;;;;;;15.48;91.51;68493.63;5062113;28;20036;-86
2022/07/04 05:54:56;;;;;;;11.60;7.72;;;;;;;15.47;91.26;68492.47;5060098;28;20924;-85
2022/07/04 05:57:21;;;;;;;8.70;7.28;;;;;;;15.50;90.65;68498.59;5078006;28;20536;-84
2022/07/04 05:59:47;;;;;;;11.80;8.48;;;;;;;15.58;91.08;68505.03;5064438;28;20044;-85
2022/07/04 06:02:13;;;;;;;10.70;7.35;;;;;;;15.63;89.64;68510.72;5062091;28;20098;-85
2022/07/04 06:04:38;;;;;;;9.68;6.60;;;;;;;;;;5062224;28;20620;-85
2022/07/04 06:07:03;;;;;;;8.65;6.03;;;;;;;;;;5064624;28;20064;-85
2022/07/04 06:09:29;;;;;;;10.57;5.38;;;;;;;15.86;86.66;68539.06;5060507;28;20416;-85
2022/07/04 06:11:54;;;;;;;7.85;5.20;;;;;;;;;;5062138;28;20055;-85
2022/07/04 06:14:19;;;;;;;8.75;5.25;;;;;;;15.98;86.02;68549.50;5060821;28;20040;-84
2022/07/04 06:16:44;;;;;;;7.47;5.03;;;;;;;;;;5060339;28;20056;-85
2022/07/04 06:19:10;;;;;;;8.67;5.13;;;;;;;16.07;85.25;68559.75;5062121;28;20067;-86
2022/07/04 06:21:35;;;;;;;11.57;4.80;;;;;;;;;;5062506;28;20278;-85
2022/07/04 06:24:02;;;;;;;8.40;4.47;;;;;;;;;;5061169;28;20062;-85
2022/07/04 06:26:27;;;;;;;10.73;4.80;;;;;;;;;;5063358;28;20043;-85
2022/07/04 06:28:52;;;;;;;10.50;4.75;;;;;;;;;;5064473;28;20048;-85
2022/07/04 06:31:17;;;;;;;7.03;4.32;;;;;;;;;;5063587;28;20044;-85
2022/07/04 06:36:28;;;;;;;8.82;5.32;;;;;;;16.41;83.11;68597.94;5061142;28;20059;-85
2022/07/04 06:38:53;;;;;;;8.52;4.72;;;;;;;16.43;84.22;68594.84;5064032;28;20508;-85
2022/07/04 06:41:19;;;;;;;9.57;5.10;;;;;;;16.55;83.71;68613.31;5060743;28;20512;-84
2022/07/04 06:43:44;;;;;;;9.55;4.95;;;;;;;16.65;82.84;68618.78;5061122;28;20044;-85
2022/07/04 06:46:09;;;;;;;6.88;4.50;;;;;;;;;;5064148;28;20036;-84
2022/07/04 06:48:36;;;;;;;9.30;4.93;;;;;;;16.81;82.55;68641.88;5060858;28;20113;-86
2022/07/04 06:51:01;;;;;;;8.43;4.25;;;;;;;16.80;82.12;68635.91;5061444;28;20303;-85
2022/07/04 06:53:26;;;;;;;9.27;4.97;;;;;;;16.84;81.57;68651.22;5060888;28;20047;-85
2022/07/04 06:55:52;;;;;;;7.68;4.97;;;;;;;16.91;81.72;68653.25;5063355;28;20048;-85
2022/07/04 06:58:18;;;;;;;8.20;4.85;;;;;;;16.96;81.73;68653.03;5064449;28;20054;-85
2022/07/04 07:00:43;;;;;;;8.77;5.07;;;;;;;17.01;81.15;68664.09;5056937;28;20086;-86
2022/07/04 07:03:09;;;;;;;7.68;4.63;;;;;;;;;;5063300;28;20552;-84
2022/07/04 07:05:36;;;;;;;7.80;4.70;;;;;;;;;;5061366;28;20570;-84
2022/07/04 07:08:03;;;;;;;7.13;4.53;;;;;;;17.09;81.20;68665.72;5047676;28;20084;-84
2022/07/04 07:10:28;;;;;;;7.07;4.15;;;;;;;17.24;80.56;68684.38;5064859;28;20056;-85
2022/07/04 07:12:53;;;;;;;8.65;4.07;;;;;;;17.33;79.89;68695.22;5066322;28;20036;-87
2022/07/04 07:15:19;;;;;;;8.68;4.18;;;;;;;;;;5066710;28;20036;-85
2022/07/04 07:17:45;;;;;;;10.25;4.40;;;;;;;17.28;79.79;68694.88;5068404;28;20500;-85
2022/07/04 07:20:10;;;;;;;7.60;3.88;;;;;;;;;;5065178;28;20055;-85
2022/07/04 07:22:36;;;;;;;8.32;4.00;;;;;;;17.48;79.36;68711.75;5063898;28;20040;-84
2022/07/04 07:25:01;;;;;;;5.18;3.40;;;;;;;;;;5060749;28;20036;-85
2022/07/04 07:27:26;;;;;;;8.80;4.10;;;;;;;;;;5077200;28;20526;-85
2022/07/04 07:29:51;;;;;;;6.57;3.20;;;;;;;17.70;77.93;68735.72;5065088;28;20457;-85
2022/07/04 07:32:17;;;;;;;7.40;3.03;;;;;;;;;;5065533;28;20365;-86
2022/07/04 07:34:42;;;;;;;5.15;3.15;;;;;;;;;;5065758;28;20124;-85
2022/07/04 07:37:08;;;;;;;8.02;3.17;;;;;;;;;;5066708;28;20071;-84
2022/07/04 07:39:33;;;;;;;6.18;2.53;;;;;;;17.87;74.84;68759.97;5065534;28;20632;-84
2022/07/04 07:41:59;;;;;;;8.73;2.88;;;;;;;;;;5063558;28;20033;-85
2022/07/04 07:44:24;;;;;;;5.77;2.70;;;;;;;17.91;74.36;68767.22;5067993;28;20466;-85
2022/07/04 07:46:49;;;;;;;6.57;2.65;;;;;;;18.06;74.50;68776.25;5072407;28;20357;-85
2022/07/04 07:49:15;;;;;;;7.40;2.83;;;;;;;18.12;74.64;68780.41;5063322;28;20055;-85
2022/07/04 07:51:40;;;;;;;6.38;2.53;;;;;;;;;;5066112;28;20036;-85
2022/07/04 07:54:06;;;;;;;7.45;2.35;;;;;;;18.12;74.63;68783.09;5063105;28;20156;-84
2022/07/04 07:56:31;;;;;;;7.45;2.28;;;;;;;;;;5080862;28;20144;-85
2022/07/04 07:58:56;;;;;;;5.70;2.10;;;;;;;18.49;71.91;68829.59;5063752;28;20036;-86
2022/07/04 08:01:21;;;;;;;5.65;2.50;;;;;;;;;;5065669;28;20170;-86
2022/07/04 08:06:32;;;;;;;7.60;2.90;;;;;;;18.56;72.02;68831.63;5061680;28;20553;-85
2022/07/04 08:08:58;;;;;;;6.43;2.58;;;;;;;18.57;72.51;68833.34;5066631;28;20040;-85
2022/07/04 08:11:34;;;;;;;7.28;2.15;;;;;;;18.81;72.38;68865.03;5064317;28;20067;-84
2022/07/04 08:14:20;;;;;;;8.05;2.40;;;;;;;18.87;71.02;68867.06;5040735;28;20652;-86
2022/07/04 08:16:55;;;;;;;7.43;2.80;;;;;;;18.92;71.91;68870.06;5043710;28;20343;-85
2022/07/04 08:19:35;;;;;;;5.13;2.10;;;;;;;18.88;71.27;68873.59;5029416;28;20694;-85
2022/07/04 08:22:02;;;;;;;5.90;1.88;;;;;;;19.03;71.10;68884.19;5024325;28;20045;-86
2022/07/04 08:24:30;;;;;;;6.60;1.90;;;;;;;;;;5040593;28;20049;-85
2022/07/04 08:26:58;;;;;;;5.97;1.80;;;;;;;19.20;69.89;68903.03;5045957;28;20077;-85
2022/07/04 08:29:24;;;;;;;5.40;2.50;;;;;;;19.07;68.74;68888.75;5037096;28;20509;-85
2022/07/04 08:31:49;;;;;;;7.03;2.20;;;;;;;;;;5034338;28;20272;-85
2022/07/04 08:34:15;;;;;;;5.15;1.90;;;;;;;19.27;69.67;68911.03;5033526;28;20560;-86
2022/07/04 08:36:41;;;;;;;5.93;2.30;;;;;;;19.24;69.05;68907.59;5050452;28;20056;-86
2022/07/04 08:39:06;;;;;;;6.57;1.63;;;;;;;;;;5043931;28;20063;-86
2022/07/04 08:41:39;;;;;;;5.17;1.80;;;;;;;19.51;69.14;68938.47;5067874;28;20058;-86
2022/07/04 08:44:06;;;;;;;6.63;2.20;;;;;;;;;;5067005;28;20290;-86
2022/07/04 08:46:32;;;;;;;4.13;1.77;;;;;;;19.56;69.26;68944.19;5061318;28;20032;-86
2022/07/04 08:48:58;;;;;;;4.80;1.88;;;;;;;;;;5067166;28;20182;-85
2022/07/04 08:51:53;;;;;;;5.25;1.88;;;;;;;19.67;67.69;68955.63;5067373;28;20455;-85
2022/07/04 08:59:49;;;;;;;5.93;1.17;;;;;;;;;;5069019;28;20055;-86
2022/07/04 09:02:18;;;;;;;4.60;1.30;;;;;;;19.79;66.63;68969.34;5065161;28;20044;-86
2022/07/04 09:04:44;;;;;;;3.63;1.58;;;;;;;19.80;68.21;68968.34;5065585;28;20344;-85
2022/07/04 09:07:12;;;;;;;3.80;1.73;;;;;;;;;;5083350;28;20512;-86
2022/07/04 09:09:40;;;;;;;4.63;1.55;;;;;;;20.16;65.47;69010.50;5067930;28;20048;-85
2022/07/04 09:12:05;;;;;;;5.28;1.52;;;;;;;;;;5065207;28;20500;-85
2022/07/04 09:14:32;;;;;;;5.40;1.70;;;;;;;20.16;64.90;69011.06;5065311;28;20094;-85
2022/07/04 09:16:58;;;;;;;4.30;1.52;;;;;;;20.03;64.35;68996.78;5067008;28;20040;-85
2022/07/04 09:19:23;;;;;;;4.45;1.30;;;;;;;;;;5064731;28;20543;-85
2022/07/04 09:21:49;;;;;;;4.90;1.40;;;;;;;19.93;64.85;68979.94;5060622;28;20049;-85
2022/07/04 09:24:15;;;;;;;11.88;1.60;;;;;;;19.96;65.85;68994.16;5070146;28;20790;-86
2022/07/04 09:26:45;;;;;;;7.45;1.60;;;;;;;19.98;65.67;68991.06;5068792;28;20033;-86
2022/07/04 09:29:11;;;;;;;3.33;1.65;;;;;;;19.95;65.66;68987.06;5066841;28;20032;-86
2022/07/04 09:31:37;;;;;;;4.57;1.65;;;;;;;19.96;64.69;68993.59;5067103;28;20158;-85
2022/07/04 09:34:07;;;;;;;6.38;1.90;;;;;;;19.95;65.78;68987.63;5064947;28;20509;-85
2022/07/04 09:36:39;;;;;;;5.28;1.50;;;;;;;;;;5065969;28;20064;-85
2022/07/04 09:39:20;;;;;;;5.88;1.83;;;;;;;20.21;63.99;69016.22;5078941;28;20512;-85
2022/07/04 09:41:55;;;;;;;4.68;1.83;;;;;;;20.47;65.20;69045.94;5060805;28;20408;-86
2022/07/04 09:44:40;;;;;;;5.40;2.25;;;;;;;20.63;64.29;69069.09;5068983;28;20480;-85
2022/07/04 09:47:24;;;;;;;5.70;2.00;;;;;;;20.61;64.21;69066.25;5061584;28;20056;-85
2022/07/04 09:50:03;;;;;;;4.28;2.40;;;;;;;20.59;62.92;69058.53;5069333;28;20048;-85
2022/07/04 09:52:29;;;;;;;8.52;2.40;;;;;;;20.48;64.33;69047.09;5062916;28;20033;-85
2022/07/04 09:55:02;;;;;;;5.38;1.73;;;;;;;20.50;63.22;69048.78;5066253;28;21381;-84
2022/07/04 09:57:29;;;;;;;6.50;1.92;;;;;;;20.61;63.98;69060.84;5065102;28;20056;-85
2022/07/04 09:59:55;;;;;;;5.00;1.60;;;;;;;20.66;63.56;69066.56;5070803;28;20400;-85
2022/07/04 10:02:20;;;;;;;5.55;2.80;;;;;;;20.66;61.55;69066.56;5063119;28;20048;-85
2022/07/04 10:04:48;;;;;;;7.38;2.10;;;;;;;20.58;61.26;69057.41;5066632;28;20075;-85
2022/07/04 10:07:38;;;;;;;6.72;1.95;;;;;;;20.61;61.89;69060.84;5065471;28;20108;-85
2022/07/04 10:10:37;;;;;;;5.75;2.30;;;;;;;20.67;62.66;69064.97;5082184;28;20051;-85
2022/07/04 10:13:05;;;;;;;5.35;1.90;;;;;;;20.46;61.41;69049.63;5078781;28;20291;-85
2022/07/04 10:15:32;;;;;;;5.37;1.60;;;;;;;20.73;61.56;69079.97;5067062;28;20295;-85
2022/07/04 10:17:59;;;;;;;5.82;2.65;;;;;;;21.12;60.27;69115.88;5065553;28;20036;-84
2022/07/04 10:20:25;;;;;;;4.22;1.42;;;;;;;21.06;59.54;69111.16;5066310;28;20086;-85
2022/07/04 10:22:51;;;;;;;4.90;1.33;;;;;;;;;;5068552;28;20484;-84
2022/07/04 10:25:16;;;;;;;5.13;1.60;;;;;;;;;;5067720;28;20033;-85
2022/07/04 10:27:41;;;;;;;5.32;1.60;;;;;;;;;;5063848;28;20055;-84
2022/07/04 10:30:11;;;;;;;5.38;1.80;;;;;;;21.40;57.23;69149.50;5067209;28;20119;-85
2022/07/04 10:32:38;;;;;;;4.68;1.92;;;;;;;21.55;57.31;69166.69;5069192;28;20105;-85
2022/07/04 10:35:03;;;;;;;3.80;1.55;;;;;;;21.61;55.80;69173.53;5068927;28;20527;-85
2022/07/04 10:37:47;;;;;;;5.68;1.65;;;;;;;;;;5069684;28;20052;-85
2022/07/04 10:40:39;;;;;;;5.00;1.65;;;;;;;21.23;56.80;69127.88;5065921;28;20044;-85
2022/07/04 10:43:25;;;;;;;5.47;1.85;;;;;;;;;;5077877;28;20056;-85
2022/07/04 10:45:52;;;;;;;5.50;1.50;;;;;;;21.02;57.46;69107.16;5062984;28;20554;-85
2022/07/04 10:48:24;;;;;;;4.03;1.67;;;;;;;20.95;58.04;69094.31;5064845;28;20044;-85
2022/07/04 10:51:04;;;;;;;3.70;1.80;;;;;;;21.05;58.04;69110.56;5065292;28;20101;-85
2022/07/04 10:53:30;;;;;;;4.53;1.88;;;;;;;;;;5066790;28;20604;-85
2022/07/04 10:56:20;;;;;;;4.85;1.73;;;;;;;21.22;57.80;69129.47;5067752;28;20276;-85
2022/07/04 10:58:45;;;;;;;6.68;2.05;;;;;;;21.57;56.45;69168.94;5064898;28;20044;-85
2022/07/04 11:01:15;;;;;;;6.65;1.67;;;;;;;21.71;54.75;69184.41;5061990;28;20120;-84
2022/07/04 11:03:51;;;;;;;5.38;1.77;;;;;;;21.63;55.66;69169.81;5066256;28;20046;-85
2022/07/04 11:06:55;;;;;;;7.30;1.65;;;;;;;;;;5066385;28;20127;-85
2022/07/04 11:09:23;;;;;;;3.75;1.70;;;;;;;21.55;56.73;69166.09;5076972;28;20055;-85
2022/07/04 11:11:56;;;;;;;6.27;1.43;;;;;;;21.54;56.62;69165.50;5064299;28;20037;-84
2022/07/04 11:14:43;;;;;;;5.28;1.40;;;;;;;21.68;55.32;69185.81;5064031;28;20045;-85
2022/07/04 11:17:19;;;;;;;7.13;1.80;;;;;;;21.55;55.70;69166.69;5064315;28;20120;-85
2022/07/04 11:19:45;;;;;;;3.97;1.40;;;;;;;21.50;55.58;69157.66;5063601;28;20044;-84
2022/07/04 11:22:10;;;;;;;4.03;1.52;;;;;;;;;;5063821;28;20033;-85
2022/07/04 11:24:36;;;;;;;4.95;1.42;;;;;;;;;;5063316;28;20444;-85
2022/07/04 11:27:02;;;;;;;4.75;1.42;;;;;;;21.23;57.44;69127.31;5061918;28;20424;-84
2022/07/04 11:29:29;;;;;;;5.60;1.50;;;;;;;21.25;57.39;69129.59;5063628;28;20492;-84
2022/07/04 11:31:55;;;;;;;5.88;1.63;;;;;;;21.19;57.05;69131.44;5064420;28;21157;-84
2022/07/04 11:34:20;;;;;;;2.60;1.30;;;;;;;;;;5066064;28;20048;-85
2022/07/04 11:36:47;;;;;;;4.88;1.52;;;;;;;;;;5061608;28;20508;-84
2022/07/04 11:39:19;;;;;;;4.57;1.63;;;;;;;21.52;57.76;69163.25;5061659;28;20570;-84
2022/07/04 11:47:33;;;;;;;6.82;2.00;;;;;;;22.07;55.75;69221.78;5061374;28;20036;-85
2022/07/04 11:50:00;;;;;;;4.40;1.98;;;;;;;22.14;55.96;69231.91;5064018;28;20409;-85
2022/07/04 11:52:29;;;;;;;3.20;1.65;;;;;;;22.25;55.63;69245.09;5063989;28;20041;-85
2022/07/04 11:54:54;;;;;;;4.10;1.83;;;;;;;22.17;55.99;69230.50;5063758;28;20051;-85
2022/07/04 11:57:26;;;;;;;4.97;2.10;;;;;;;22.29;55.07;69243.69;5075543;28;20048;-84
2022/07/04 11:59:55;;;;;;;5.70;1.77;;;;;;;22.32;53.43;69251.97;5062162;28;20056;-85
2022/07/04 12:02:21;;;;;;;4.82;1.90;;;;;;;22.15;52.59;69233.63;5062960;28;20041;-85
2022/07/04 12:04:47;;;;;;;4.13;1.85;;;;;;;22.21;53.29;69237.81;5064769;28;20484;-84
2022/07/04 12:07:15;;;;;;;9.05;2.25;;;;;;;22.41;51.07;69259.56;5065924;28;20497;-85
2022/07/04 12:09:42;;;;;;;3.05;1.63;;;;;;;22.53;51.95;69276.03;5062732;28;20044;-85
2022/07/04 12:12:08;;;;;;;6.15;1.67;;;;;;;;;;5064439;28;20055;-84
2022/07/04 12:14:34;;;;;;;4.82;2.05;;;;;;;22.87;51.65;69314.41;5063719;28;20695;-85
2022/07/04 12:17:14;;;;;;;4.43;1.95;;;;;;;22.60;50.42;69284.03;5063501;28;20044;-85
2022/07/04 12:19:54;;;;;;;8.35;1.92;;;;;;;22.48;50.80;69267.59;5065845;28;20047;-85
2022/07/04 12:22:40;;;;;;;4.25;1.80;;;;;;;22.50;51.36;69265.03;5063511;28;20397;-86
2022/07/04 12:25:18;;;;;;;4.70;1.63;;;;;;;22.62;52.13;69286.31;5074548;28;20088;-85
2022/07/04 12:27:51;;;;;;;5.82;1.98;;;;;;;22.49;50.37;69271.44;5062518;28;20060;-85
2022/07/04 12:30:16;;;;;;;3.47;1.73;;;;;;;22.36;52.09;69253.84;5065623;28;20139;-85